Latest Weather Observations for Mullion

IDN60801

Issued at 7:32 pm EST Wednesday 12 August 2020 (issued every 10 minutes, with the page automatically refreshed every 10 minutes)

About weather observations | Map of weather stations | Latest weather observations for NSW | Other Formats
Station Details ID: 250070 Name: MULLION (PCS) Lat: -35.11 Lon: 148.85 Height: 750.0 m

Portable automatic weather stations (PAWS) are operated by other organisations, such as Fire and Emergency Services, and are included here by agreement. Portable stations may be deployed to a location for a short period and their location may be subject to change without notice. Wind observations from these stations are provided from heights of either three (3) or ten (10) metres above ground level (AGL).

Data from the previous 72 hours. | See also: Recent months for locations in New South Wales
Date/Time
EST
Temp
°C
App
Temp
°C
Dew
Point
°C
Rel
Hum
%
Delta-T
°C
Wind Press
QNH
hPa
Press
MSL
hPa
Rain since
9am
mm
Dir  Spd
km/h
Gust
km/h
Spd
kts
Gust
kts
12/07:20pm 8.2 6.6 8.2 100 0.0 W 6 6 3 3 1014.0 - 1.0
12/07:10pm 8.2 6.6 8.2 100 0.0 WNW 6 7 3 4 1013.9 - 1.0
12/07:00pm 8.3 6.8 8.3 100 0.0 NW 6 7 3 4 1013.9 - 1.0
12/06:50pm 8.3 6.6 8.3 100 0.0 NW 7 9 4 5 1013.8 - 1.0
12/06:40pm 8.3 6.2 8.3 100 0.0 NW 9 9 5 5 1013.8 - 1.0
12/06:30pm 8.2 6.5 8.2 100 0.0 NW 7 9 4 5 1013.6 - 1.0
12/06:20pm 8.0 6.2 8.0 100 0.0 WNW 7 9 4 5 1013.5 - 0.8
12/06:10pm 8.1 6.0 8.1 100 0.0 NW 9 11 5 6 1013.6 - 0.6
12/06:00pm 8.1 6.3 8.1 100 0.0 NNW 7 9 4 5 1013.5 - 0.4
12/05:50pm 8.1 6.0 8.1 100 0.0 NNW 9 9 5 5 1013.4 - 0.2
12/05:40pm 8.2 6.5 8.2 100 0.0 NNW 7 9 4 5 1013.2 - 0.2
12/05:30pm 8.2 6.4 8.1 99 0.0 NW 7 9 4 5 1013.2 - 0.2
12/05:20pm 8.3 6.2 8.1 99 0.1 NNW 9 9 5 5 1013.2 - 0.0
12/05:10pm 8.3 6.1 8.0 98 0.1 NNW 9 11 5 6 1013.1 - 0.0
12/05:00pm 8.4 6.6 8.0 97 0.2 NNW 7 9 4 5 1013.1 - 0.0
12/04:50pm 8.4 6.6 8.0 97 0.2 NNW 7 9 4 5 1012.9 - 0.0
12/04:40pm 8.5 6.0 8.0 97 0.2 NW 11 15 6 8 1012.9 - 0.0
12/04:30pm 8.8 5.5 7.9 94 0.4 NNW 15 17 8 9 1013.0 - 0.0
12/04:20pm 9.0 6.8 7.8 92 0.6 NNW 9 15 5 8 1013.0 - 0.0
12/04:10pm 9.1 7.3 8.0 93 0.6 NNW 7 7 4 4 1013.1 - 0.0
12/04:00pm 9.1 7.5 7.8 92 0.6 NW 6 7 3 4 1013.0 - 0.0
12/03:50pm 9.1 7.2 7.6 90 0.7 NW 7 9 4 5 1013.0 - 0.0
12/03:40pm 9.2 7.3 7.5 89 0.8 NNW 7 11 4 6 1013.1 - 0.0
12/03:30pm 9.3 7.7 7.9 91 0.7 NNW 6 7 3 4 1013.0 - 0.0
12/03:20pm 9.4 7.8 8.1 92 0.7 NW 6 7 3 4 1013.1 - 0.0
12/03:10pm 9.4 7.6 8.0 91 0.7 NW 7 7 4 4 1013.1 - 0.0
12/03:00pm 9.3 7.5 7.8 90 0.7 NW 7 7 4 4 1013.1 - 0.0
12/02:50pm 9.3 7.4 7.5 88 0.9 NW 7 9 4 5 1013.2 - 0.0
12/02:40pm 9.2 6.9 7.6 90 0.8 NW 9 9 5 5 1013.1 - 0.0
12/02:30pm 9.0 6.7 7.5 90 0.7 NW 9 11 5 6 1013.2 - 0.0
12/02:20pm 9.0 6.7 7.4 90 0.8 WNW 9 11 5 6 1013.3 - 0.0
12/02:10pm 8.9 6.6 7.5 91 0.7 WNW 9 9 5 5 1013.4 - 0.0
12/02:00pm 8.7 6.4 7.4 91 0.6 WNW 9 9 5 5 1013.5 - 0.0
12/01:50pm 8.7 6.8 7.5 92 0.6 WNW 7 7 4 4 1013.6 - 0.0
12/01:40pm 8.6 6.3 7.5 93 0.5 WNW 9 11 5 6 1013.7 - 0.0
12/01:30pm 8.4 5.7 7.3 93 0.5 WNW 11 13 6 7 1013.8 - 0.0
12/01:20pm 8.4 5.7 7.2 92 0.6 WNW 11 11 6 6 1013.8 - 0.0
12/01:10pm 8.4 6.0 7.1 91 0.6 NW 9 13 5 7 1014.0 - 0.0
12/01:00pm 8.4 4.8 6.8 90 0.8 NW 15 15 8 8 1014.2 - 0.0
12/12:50pm 8.5 5.2 6.6 88 0.9 NW 13 15 7 8 1014.3 - 0.0
12/12:40pm 8.6 5.3 6.6 87 1.0 NW 13 17 7 9 1014.4 - 0.0
12/12:30pm 8.6 5.3 6.5 87 1.0 NW 13 15 7 8 1014.7 - 0.0
12/12:20pm 8.5 5.2 6.4 87 1.0 NW 13 15 7 8 1014.9 - 0.0
12/12:10pm 8.6 5.6 6.2 85 1.2 NW 11 17 6 9 1015.1 - 0.0
12/12:00pm 8.6 5.2 6.0 84 1.2 NW 13 15 7 8 1015.2 - 0.0
12/11:50am 8.8 5.5 6.3 84 1.2 NW 13 15 7 8 1015.3 - 0.0
12/11:40am 8.6 5.2 5.7 82 1.4 NNW 13 15 7 8 1015.4 - 0.0
12/11:30am 8.3 4.8 5.4 82 1.4 NNW 13 15 7 8 1015.5 - 0.0
12/11:20am 8.5 4.6 5.4 81 1.5 NW 15 15 8 8 1015.7 - 0.0
12/11:10am 8.9 5.8 5.5 79 1.6 NW 11 15 6 8 1015.9 - 0.0
12/11:00am 9.1 5.9 5.3 77 1.8 NW 11 13 6 7 1016.0 - 0.0
12/10:50am 8.8 5.7 5.6 80 1.5 NW 11 13 6 7 1016.2 - 0.0
12/10:40am 9.1 6.5 6.1 81 1.4 NNW 9 11 5 6 1016.3 - 0.0
12/10:30am 9.2 7.3 6.9 85 1.1 NNW 6 11 3 6 1016.5 - 0.0
12/10:20am 9.8 8.2 6.4 79 1.7 NW 4 9 2 5 1016.7 - 0.0
12/10:10am 10.1 9.0 7.1 81 1.5 NE 2 4 1 2 1016.9 - 0.0
12/10:00am 9.4 8.2 6.3 81 1.5 ENE 2 6 1 3 1016.9 - 0.0
12/09:50am 9.5 8.3 6.4 81 1.5 E 2 4 1 2 1017.0 - 0.0
12/09:40am 9.3 8.4 6.1 80 1.5 CALM 0 2 0 1 1017.1 - 0.0
12/09:30am 8.5 7.2 6.0 84 1.2 WNW 2 4 1 2 1017.1 - 0.0
12/09:20am 7.8 5.8 4.5 79 1.5 NW 4 6 2 3 1017.2 - 0.0
12/09:10am 7.2 5.2 4.2 81 1.4 WNW 4 6 2 3 1017.3 - 0.0
12/09:00am 6.5 5.1 3.7 82 1.2 CALM 0 0 0 0 1017.3 - 0.0
12/08:50am 6.1 4.7 3.5 83 1.1 CALM 0 4 0 2 1017.2 - 0.0
12/08:40am 5.7 3.9 3.4 85 1.0 E 2 6 1 3 1017.2 - 0.0
12/08:30am 5.3 3.5 3.5 88 0.8 E 2 4 1 2 1017.2 - 0.0
12/08:20am 5.4 3.2 3.5 87 0.8 E 4 6 2 3 1017.2 - 0.0
12/08:10am 5.6 3.8 3.5 86 0.9 ENE 2 4 1 2 1017.2 - 0.0
12/08:00am 5.8 4.0 3.6 86 1.0 W 2 6 1 3 1017.2 - 0.0
12/07:50am 5.7 3.9 3.3 84 1.0 S 2 4 1 2 1017.1 - 0.0
12/07:40am 5.5 3.3 3.2 85 1.0 SE 4 6 2 3 1017.0 - 0.0
12/07:30am 5.4 2.8 3.4 87 0.9 SE 6 7 3 4 1016.9 - 0.0
12/07:20am 5.8 3.6 3.3 84 1.1 SE 4 6 2 3 1016.7 - 0.0
12/07:10am 5.3 3.1 3.4 87 0.8 SSE 4 6 2 3 1016.8 - 0.0
12/07:00am 5.7 3.1 3.4 85 1.0 SSE 6 6 3 3 1016.8 - 0.0
12/06:50am 5.7 3.1 3.1 83 1.1 S 6 6 3 3 1016.7 - 0.0
12/06:40am 5.4 2.6 3.0 84 1.0 S 7 9 4 5 1016.8 - 0.0
12/06:30am 5.0 1.8 3.2 88 0.8 S 9 11 5 6 1016.5 - 0.0
12/06:20am 4.9 1.3 3.2 89 0.7 S 11 11 6 6 1016.5 - 0.0
12/06:10am 4.8 2.0 3.2 89 0.7 SSE 7 9 4 5 1016.5 - 0.0
12/06:00am 5.1 2.5 3.3 88 0.8 SE 6 7 3 4 1016.6 - 0.0
12/05:50am 5.2 3.7 3.0 86 0.9 CALM 0 4 0 2 1016.6 - 0.0
12/05:40am 5.0 2.8 3.3 89 0.7 E 4 6 2 3 1016.7 - 0.0
12/05:30am 5.1 2.5 3.3 88 0.8 SSE 6 7 3 4 1016.6 - 0.0
12/05:20am 5.1 2.3 3.3 88 0.8 SE 7 7 4 4 1016.6 - 0.0
12/05:10am 5.1 2.9 3.3 88 0.8 E 4 6 2 3 1016.7 - 0.0
12/05:00am 5.2 3.8 3.4 88 0.8 CALM 0 0 0 0 1016.8 - 0.0
12/04:50am 5.6 4.2 3.3 85 1.0 CALM 0 0 0 0 1016.8 - 0.0
12/04:40am 5.8 4.3 3.0 82 1.2 CALM 0 0 0 0 1016.8 - 0.0
12/04:30am 5.6 4.1 3.1 84 1.1 CALM 0 0 0 0 1016.7 - 0.0
12/04:20am 5.7 3.9 3.2 84 1.1 NNW 2 4 1 2 1016.7 - 0.0
12/04:10am 5.7 3.9 3.2 84 1.1 NNW 2 2 1 1 1016.8 - 0.0
12/04:00am 5.9 4.4 3.2 83 1.2 CALM 0 2 0 1 1016.9 - 0.0
12/03:50am 5.9 4.4 3.0 82 1.3 CALM 0 2 0 1 1016.9 - 0.0
12/03:40am 5.9 4.0 3.0 82 1.3 NW 2 4 1 2 1016.9 - 0.0
12/03:30am 5.8 3.6 3.2 83 1.1 WNW 4 6 2 3 1017.0 - 0.0
12/03:20am 6.0 3.4 3.2 82 1.2 WNW 6 6 3 3 1017.1 - 0.0
12/03:10am 6.0 3.4 3.1 82 1.3 WNW 6 6 3 3 1017.1 - 0.0
12/03:00am 6.1 3.5 3.1 81 1.3 W 6 6 3 3 1017.1 - 0.0
12/02:50am 5.6 3.3 3.0 83 1.1 SSW 4 6 2 3 1017.2 - 0.0
12/02:40am 5.4 2.6 3.2 86 1.0 S 7 7 4 4 1017.2 - 0.0
12/02:30am 5.4 2.6 3.2 86 1.0 SSE 7 9 4 5 1017.3 - 0.0
12/02:20am 5.4 2.2 3.3 86 0.9 SE 9 9 5 5 1017.1 - 0.0
12/02:10am 5.5 2.3 3.3 86 1.0 SSE 9 9 5 5 1017.2 - 0.0
12/02:00am 5.5 2.7 3.3 86 1.0 SSE 7 9 4 5 1017.3 - 0.0
12/01:50am 5.4 2.2 3.2 86 1.0 SSE 9 9 5 5 1017.6 - 0.0
12/01:40am 5.1 2.3 3.4 89 0.7 SE 7 9 4 5 1017.7 - 0.0
12/01:30am 5.2 2.5 3.5 89 0.7 ESE 7 9 4 5 1017.8 - 0.0
12/01:20am 5.5 2.8 3.5 87 0.9 E 7 7 4 4 1017.9 - 0.0
12/01:10am 5.7 3.5 3.4 85 1.0 E 4 6 2 3 1018.1 - 0.0
12/01:00am 5.9 4.1 3.2 83 1.2 WSW 2 2 1 1 1018.2 - 0.0
12/12:50am 6.1 4.6 3.1 81 1.3 CALM 0 0 0 0 1018.3 - 0.0
12/12:40am 6.3 4.8 3.0 79 1.4 CALM 0 2 0 1 1018.4 - 0.0
12/12:30am 6.2 4.7 3.1 80 1.4 CALM 0 0 0 0 1018.5 - 0.0
12/12:20am 6.3 4.8 3.0 79 1.4 CALM 0 0 0 0 1018.5 - 0.0
12/12:10am 6.2 4.7 3.1 80 1.4 CALM 0 2 0 1 1018.4 - 0.0
12/12:00am 6.4 4.6 3.3 80 1.4 E 2 4 1 2 1018.6 - 0.0
 
Date/Time
EST
Temp
°C
App
Temp
°C
Dew
Point
°C
Rel
Hum
%
Delta-T
°C
Wind Press
QNH
hPa
Press
MSL
hPa
Rain since
9am
mm
Dir  Spd
km/h
Gust
km/h
Spd
kts
Gust
kts
11/11:50pm 6.6 5.1 3.0 78 1.6 CALM 0 2 0 1 1018.5 - 0.0
11/11:40pm 6.8 5.0 3.3 78 1.5 ESE 2 6 1 3 1018.6 - 0.0
11/11:30pm 7.0 5.5 3.1 76 1.7 CALM 0 2 0 1 1018.7 - 0.0
11/11:20pm 6.8 4.9 2.8 75 1.7 W 2 4 1 2 1018.6 - 0.0
11/11:10pm 6.6 3.8 3.2 79 1.5 WNW 7 9 4 5 1018.8 - 0.0
11/11:00pm 6.7 4.1 3.2 78 1.5 W 6 7 3 4 1019.0 - 0.0
11/10:50pm 6.9 4.1 2.9 76 1.8 SSW 7 7 4 4 1018.8 - 0.0
11/10:40pm 6.6 3.4 2.8 77 1.7 S 9 9 5 5 1018.5 - 0.0
11/10:30pm 6.6 3.4 3.1 78 1.5 S 9 9 5 5 1018.6 - 0.0
11/10:20pm 6.6 3.0 2.9 77 1.6 SSE 11 15 6 8 1018.6 - 0.0
11/10:10pm 6.6 2.6 2.9 77 1.6 S 13 15 7 8 1018.5 - 0.0
11/10:00pm 6.2 1.9 3.0 80 1.4 S 15 17 8 9 1018.7 - 0.0
11/09:50pm 6.1 1.7 2.9 80 1.4 S 15 17 8 9 1018.6 - 0.0
11/09:40pm 6.0 1.3 3.1 82 1.3 SSE 17 17 9 9 1018.3 - 0.0
11/09:30pm 5.8 0.6 3.4 84 1.1 SSE 20 20 11 11 1018.3 - 0.0
11/09:20pm 6.3 2.4 3.4 82 1.3 SSE 13 17 7 9 1018.3 - 0.0
11/09:10pm 6.5 3.0 3.4 80 1.4 S 11 13 6 7 1018.6 - 0.0
11/09:00pm 6.8 3.2 3.2 78 1.6 S 11 15 6 8 1018.6 - 0.0
11/08:50pm 6.8 2.9 3.2 78 1.6 S 13 13 7 7 1018.5 - 0.0
11/08:40pm 6.6 3.0 3.2 79 1.5 S 11 11 6 6 1018.6 - 0.0
11/08:30pm 6.5 3.0 3.3 80 1.4 SSE 11 13 6 7 1018.5 - 0.0
11/08:20pm 6.3 2.7 3.2 80 1.4 SSE 11 13 6 7 1018.5 - 0.0
11/08:10pm 6.1 2.6 3.3 82 1.2 SSE 11 11 6 6 1018.6 - 0.0
11/08:00pm 6.1 2.6 3.5 83 1.1 SE 11 13 6 7 1018.6 - 0.0
11/07:50pm 6.4 3.3 3.4 81 1.3 SSE 9 9 5 5 1018.6 - 0.0
11/07:40pm 6.7 4.2 3.7 81 1.3 SE 6 7 3 4 1018.7 - 0.0
11/07:30pm 7.5 4.9 3.3 75 1.9 SW 6 7 3 4 1018.8 - 0.0
11/07:20pm 7.3 4.7 3.3 76 1.8 WSW 6 7 3 4 1019.0 - 0.0
11/07:10pm 7.3 4.6 3.5 77 1.7 WNW 7 9 4 5 1019.1 - 0.0
11/07:00pm 7.2 3.7 3.5 77 1.6 WNW 11 11 6 6 1019.2 - 0.0
11/06:50pm 7.3 3.5 3.7 78 1.6 WNW 13 17 7 9 1019.2 - 0.0
11/06:40pm 7.3 3.0 3.5 77 1.7 WNW 15 17 8 9 1019.1 - 0.0
11/06:30pm 7.2 2.6 3.7 78 1.6 WNW 17 19 9 10 1019.2 - 0.0
11/06:20pm 7.0 2.0 3.5 78 1.6 WNW 19 20 10 11 1019.2 - 0.0
11/06:10pm 6.7 1.6 4.0 83 1.2 WNW 20 24 11 13 1019.3 - 0.0
11/06:00pm 6.8 0.9 3.8 81 1.3 WNW 24 28 13 15 1019.3 - 0.0
11/05:50pm 6.7 1.6 4.3 85 1.1 WNW 20 22 11 12 1019.2 - 0.0
11/05:40pm 7.0 2.1 4.2 82 1.3 NW 19 20 10 11 1018.9 - 0.0
11/05:30pm 7.1 2.2 4.0 81 1.4 NW 19 20 10 11 1019.0 - 0.0
11/05:20pm 7.2 2.3 4.1 81 1.4 NW 19 22 10 12 1018.9 - 0.0
11/05:10pm 7.4 2.5 4.3 81 1.4 NW 19 19 10 10 1019.0 - 0.0
11/05:00pm 7.9 3.1 4.5 79 1.6 NW 19 20 10 11 1018.9 - 0.0
11/04:50pm 8.1 3.2 4.2 76 1.8 NW 19 22 10 12 1018.7 - 0.0
11/04:40pm 8.1 3.6 4.3 77 1.7 NW 17 19 9 10 1018.8 - 0.0
11/04:30pm 8.2 3.7 4.2 76 1.8 NW 17 19 9 10 1018.7 - 0.0
11/04:20pm 8.3 3.8 4.0 74 2.0 NW 17 19 9 10 1018.6 - 0.0
11/04:10pm 8.1 3.1 3.7 74 2.0 NW 19 20 10 11 1018.7 - 0.0
11/04:00pm 8.2 3.1 3.9 74 1.9 NW 20 22 11 12 1018.7 - 0.0
11/03:50pm 8.0 3.0 3.8 75 1.9 NW 19 19 10 10 1018.7 - 0.0
11/03:40pm 8.2 3.7 4.2 76 1.8 NW 17 19 9 10 1018.8 - 0.0
11/03:30pm 8.1 3.2 3.9 75 1.9 NW 19 20 10 11 1018.9 - 0.0
11/03:20pm 8.1 4.0 4.1 76 1.8 NW 15 19 8 10 1019.0 - 0.0
11/03:10pm 8.3 5.8 3.6 72 2.1 NNW 6 11 3 6 1019.0 - 0.0
11/03:00pm 8.7 6.3 4.1 73 2.1 N 6 9 3 5 1019.0 - 0.0
11/02:50pm 8.9 6.6 4.7 75 2.0 NW 6 9 3 5 1019.1 - 0.0
11/02:40pm 8.7 6.4 4.7 76 1.9 NNW 6 7 3 4 1019.2 - 0.0
11/02:30pm 8.4 6.1 4.7 77 1.7 NNW 6 9 3 5 1019.1 - 0.0
11/02:20pm 8.7 6.0 3.9 72 2.2 N 7 7 4 4 1019.4 - 0.0
11/02:10pm 8.5 6.9 4.3 75 1.9 N 2 6 1 3 1019.5 - 0.0
11/02:00pm 8.1 6.1 4.2 76 1.8 N 4 7 2 4 1019.7 - 0.0
11/01:50pm 7.6 4.9 3.9 77 1.7 NW 7 11 4 6 1019.8 - 0.0
11/01:40pm 7.3 4.3 3.9 79 1.5 WNW 9 13 5 7 1019.9 - 0.0
11/01:30pm 7.7 6.1 4.4 79 1.5 WNW 2 7 1 4 1020.1 - 0.0
11/01:20pm 7.7 5.3 4.2 78 1.6 N 6 7 3 4 1020.2 - 0.0
11/01:10pm 7.8 5.7 4.1 77 1.7 ESE 4 7 2 4 1020.3 - 0.0
11/01:00pm 7.4 5.4 4.2 80 1.5 SE 4 7 2 4 1020.4 - 0.0
11/12:50pm 7.1 4.6 3.5 78 1.6 E 6 11 3 6 1020.7 - 0.0
11/12:40pm 6.8 4.3 3.6 80 1.4 ESE 6 11 3 6 1020.8 - 0.0
11/12:30pm 6.7 4.0 3.5 80 1.4 SE 7 11 4 6 1021.1 - 0.0
11/12:20pm 6.6 3.1 3.6 81 1.3 SSE 11 15 6 8 1021.2 - 0.0
11/12:10pm 6.2 2.7 3.4 82 1.2 SE 11 15 6 8 1021.3 - 0.0
11/12:00pm 6.3 3.6 3.5 82 1.2 S 7 11 4 6 1021.4 - 0.0
11/11:50am 6.0 3.2 3.2 82 1.2 SE 7 11 4 6 1021.7 - 0.0
11/11:40am 5.9 3.1 3.2 83 1.2 SSE 7 9 4 5 1021.9 - 0.0
11/11:30am 5.5 2.3 3.1 84 1.0 S 9 11 5 6 1022.1 - 0.0
11/11:20am 5.3 2.1 3.2 86 0.9 S 9 11 5 6 1022.2 - 0.0
11/11:10am 5.1 1.5 2.9 86 0.9 SSE 11 11 6 6 1022.3 - 0.0
11/11:00am 4.9 2.1 2.9 87 0.9 SSE 7 9 4 5 1022.3 - 0.0
11/10:50am 4.6 1.4 2.8 88 0.8 SE 9 11 5 6 1022.4 - 0.0
11/10:40am 4.3 -0.1 2.7 89 0.7 ESE 15 19 8 10 1022.4 - 0.0
11/10:30am 4.0 -0.1 2.2 88 0.8 ESE 13 17 7 9 1022.2 - 0.0
11/10:20am 3.7 -0.4 2.2 90 0.6 SE 13 15 7 8 1022.4 - 0.0
11/10:10am 3.3 -0.8 2.1 92 0.5 ESE 13 15 7 8 1022.4 - 0.0
11/10:00am 3.3 -0.8 2.2 92 0.5 ESE 13 15 7 8 1022.4 - 0.0
11/09:50am 3.8 0.5 2.6 92 0.5 E 9 11 5 6 1022.5 - 0.0
11/09:40am 4.6 1.6 2.1 84 1.0 ENE 7 9 4 5 1022.7 - 0.0
11/09:30am 4.9 2.6 2.8 86 0.9 ENE 4 6 2 3 1022.7 - 0.0
11/09:20am 5.7 3.5 3.2 84 1.1 SE 4 6 2 3 1022.8 - 0.0
11/09:10am 6.0 3.3 2.9 80 1.3 E 6 9 3 5 1022.7 - 0.0
11/09:00am 6.0 3.1 1.6 73 1.9 SSE 6 6 3 3 1022.6 - 0.0
11/08:50am 5.8 3.5 2.9 82 1.3 SE 4 6 2 3 1022.7 - 0.0
11/08:40am 5.3 2.4 1.3 75 1.7 S 6 7 3 4 1022.7 - 0.0
11/08:30am 4.9 1.9 0.8 75 1.7 SSE 6 7 3 4 1022.6 - 0.0
11/08:20am 4.5 0.9 0.7 76 1.5 SSE 9 9 5 5 1022.5 - 0.0
11/08:10am 4.2 0.2 0.5 77 1.5 SSE 11 13 6 7 1022.4 - 0.0
11/08:00am 3.8 -0.2 0.6 79 1.3 SSE 11 11 6 6 1022.3 - 0.0
11/07:50am 4.3 0.3 0.6 77 1.5 S 11 13 6 7 1022.2 - 0.0
11/07:40am 4.3 0.3 0.4 76 1.6 S 11 11 6 6 1022.2 - 0.0
11/07:30am 4.0 -0.4 0.4 77 1.4 S 13 13 7 7 1022.1 - 0.0
11/07:20am 3.8 -0.6 0.3 78 1.4 S 13 15 7 8 1021.9 - 0.0
11/07:10am 3.3 -1.1 0.2 80 1.2 S 13 15 7 8 1021.9 - 0.0
11/07:00am 2.7 -2.1 0.2 83 1.0 S 15 17 8 9 1021.7 - 0.0
11/06:50am 2.6 -2.6 0.3 85 0.9 SSE 17 17 9 9 1021.8 - 0.0
11/06:40am 2.7 -2.5 0.2 83 1.0 SSE 17 17 9 9 1021.6 - 0.0
11/06:30am 2.8 -2.0 0.2 83 1.0 S 15 17 8 9 1021.8 - 0.0
11/06:20am 2.7 -2.1 0.2 83 1.0 S 15 17 8 9 1021.9 - 0.0
11/06:10am 2.7 -2.1 0.2 83 1.0 S 15 15 8 8 1021.8 - 0.0
11/06:00am 2.8 -2.0 0.2 83 1.0 S 15 15 8 8 1021.9 - 0.0
11/05:50am 3.0 -1.4 0.3 82 1.1 S 13 15 7 8 1021.7 - 0.0
11/05:40am 3.0 -1.4 0.2 82 1.1 S 13 13 7 7 1021.7 - 0.0
11/05:30am 3.0 -1.4 0.2 82 1.1 SSE 13 13 7 7 1021.7 - 0.0
11/05:20am 3.0 -1.4 0.3 82 1.1 S 13 13 7 7 1021.6 - 0.0
11/05:10am 3.4 -1.0 0.4 81 1.2 S 13 15 7 8 1021.6 - 0.0
11/05:00am 3.6 -0.8 0.2 78 1.3 S 13 13 7 7 1021.4 - 0.0
11/04:50am 3.5 -0.9 0.3 79 1.3 S 13 13 7 7 1021.4 - 0.0
11/04:40am 3.7 -0.7 0.2 78 1.4 S 13 13 7 7 1021.1 - 0.0
11/04:30am 3.7 -0.3 0.3 78 1.4 S 11 13 6 7 1021.2 - 0.0
11/04:20am 3.4 -0.6 0.2 79 1.3 S 11 11 6 6 1021.2 - 0.0
11/04:10am 3.1 -1.7 0.2 81 1.1 SSE 15 17 8 9 1021.2 - 0.0
11/04:00am 2.9 -1.9 0.3 83 1.0 SSE 15 15 8 8 1021.1 - 0.0
11/03:50am 3.1 -1.7 0.4 82 1.1 SSE 15 15 8 8 1021.3 - 0.0
11/03:40am 3.6 -1.2 0.4 79 1.3 SSE 15 15 8 8 1021.5 - 0.0
11/03:30am 3.8 -0.6 0.4 78 1.4 SSE 13 13 7 7 1021.6 - 0.0
11/03:20am 3.8 -0.2 0.3 78 1.4 SSE 11 13 6 7 1021.7 - 0.0
11/03:10am 3.6 -0.4 0.3 79 1.3 SSE 11 13 6 7 1021.7 - 0.0
11/03:00am 3.9 -0.5 0.4 78 1.4 SSE 13 15 7 8 1021.9 - 0.0
11/02:50am 3.5 -0.5 0.3 79 1.3 SSE 11 13 6 7 1022.1 - 0.0
11/02:40am 4.4 0.4 0.6 76 1.5 SE 11 11 6 6 1022.2 - 0.0
11/02:30am 4.7 1.1 0.3 73 1.8 SE 9 11 5 6 1022.4 - 0.0
11/02:20am 4.7 0.7 0.3 73 1.8 SSE 11 11 6 6 1022.5 - 0.0
11/02:10am 4.8 0.8 0.4 73 1.8 SSE 11 11 6 6 1022.7 - 0.0
11/02:00am 4.8 0.8 0.4 73 1.8 SSE 11 11 6 6 1022.7 - 0.0
11/01:50am 4.8 1.2 0.4 73 1.8 S 9 11 5 6 1023.0 - 0.0
11/01:40am 4.8 0.8 0.3 72 1.8 S 11 11 6 6 1023.1 - 0.0
11/01:30am 4.8 0.8 0.4 73 1.8 S 11 11 6 6 1023.1 - 0.0
11/01:20am 4.9 0.9 0.4 72 1.8 S 11 11 6 6 1023.2 - 0.0
11/01:10am 4.9 0.9 0.4 72 1.8 S 11 11 6 6 1023.2 - 0.0
11/01:00am 4.7 0.7 0.4 74 1.7 S 11 11 6 6 1023.3 - 0.0
11/12:50am 4.5 0.1 0.4 75 1.6 S 13 13 7 7 1023.2 - 0.0
11/12:40am 4.1 -0.3 0.5 77 1.4 S 13 13 7 7 1023.1 - 0.0
11/12:30am 4.2 -0.5 0.8 78 1.4 SSE 15 17 8 9 1023.1 - 0.0
11/12:20am 4.4 -0.7 0.5 76 1.6 SSE 17 17 9 9 1023.0 - 0.0
11/12:10am 4.2 -0.9 0.5 77 1.5 SSE 17 17 9 9 1023.0 - 0.0
11/12:00am 4.0 -0.7 0.7 79 1.3 SSE 15 17 8 9 1023.0 - 0.0
 
Date/Time
EST
Temp
°C
App
Temp
°C
Dew
Point
°C
Rel
Hum
%
Delta-T
°C
Wind Press
QNH
hPa
Press
MSL
hPa
Rain since
9am
mm
Dir  Spd
km/h
Gust
km/h
Spd
kts
Gust
kts
10/11:50pm 4.6 -0.1 0.7 76 1.6 S 15 17 8 9 1023.1 - 0.0
10/11:40pm 4.5 -0.6 0.6 76 1.6 S 17 17 9 9 1023.2 - 0.0
10/11:30pm 4.4 -0.7 0.7 77 1.5 S 17 17 9 9 1023.1 - 0.0
10/11:20pm 4.1 -1.0 0.8 79 1.3 S 17 17 9 9 1023.0 - 0.0
10/11:10pm 4.1 -1.5 0.9 80 1.3 SSE 20 22 11 12 1022.9 - 0.0
10/11:00pm 4.4 -1.2 1.0 78 1.4 SSE 20 20 11 11 1022.7 - 0.0
10/10:50pm 4.6 -0.8 1.0 77 1.5 SSE 19 20 10 11 1022.7 - 0.0
10/10:40pm 4.6 -0.9 0.9 77 1.5 SSE 19 19 10 10 1022.8 - 0.0
10/10:30pm 4.5 -0.5 1.1 78 1.4 SSE 17 19 9 10 1022.8 - 0.0
10/10:20pm 4.6 -0.4 1.2 78 1.4 SSE 17 19 9 10 1022.8 - 0.0
10/10:10pm 4.9 -0.1 1.1 76 1.6 SSE 17 19 9 10 1022.8 - 0.0
10/10:00pm 5.1 0.1 1.1 75 1.6 SSE 17 19 9 10 1022.8 - 0.0
10/09:50pm 5.2 0.2 1.2 75 1.7 SSE 17 20 9 11 1022.7 - 0.0
10/09:40pm 4.8 -0.2 1.4 78 1.4 SE 17 20 9 11 1022.8 - 0.0
10/09:30pm 4.7 -0.3 1.5 80 1.3 SSE 17 19 9 10 1022.7 - 0.0
10/09:20pm 5.1 0.1 1.6 78 1.5 SE 17 20 9 11 1022.8 - 0.0
10/09:10pm 5.1 0.5 1.6 78 1.5 SE 15 19 8 10 1022.9 - 0.0
10/09:00pm 5.2 -0.4 1.5 77 1.5 SE 20 22 11 12 1022.7 - 0.0
10/08:50pm 5.3 -0.2 1.6 77 1.5 SE 20 26 11 14 1022.5 - 0.0
10/08:40pm 5.5 0.0 1.9 77 1.5 SE 20 22 11 12 1022.6 - 0.0
10/08:30pm 5.4 0.1 1.8 77 1.5 SE 19 20 10 11 1022.7 - 0.0
10/08:20pm 5.5 0.2 2.0 78 1.5 ESE 19 20 10 11 1022.7 - 0.0
10/08:10pm 5.6 0.1 2.1 78 1.5 ESE 20 20 11 11 1022.7 - 0.0
10/08:00pm 5.8 0.6 2.2 78 1.5 ESE 19 20 10 11 1022.5 - 0.0
10/07:50pm 5.9 0.5 2.2 77 1.6 ESE 20 22 11 12 1022.4 - 0.0
10/07:40pm 6.0 1.1 2.2 76 1.6 E 17 20 9 11 1022.4 - 0.0
10/07:30pm 6.1 1.2 2.2 76 1.7 E 17 17 9 9 1022.6 - 0.0
10/07:20pm 6.1 1.6 2.0 75 1.7 ESE 15 19 8 10 1022.6 - 0.0
10/07:10pm 6.2 0.8 2.2 75 1.7 SE 20 22 11 12 1022.4 - 0.0
10/07:00pm 6.5 1.2 2.1 73 1.9 SE 19 20 10 11 1022.4 - 0.0
10/06:50pm 6.9 1.5 2.2 72 2.0 SE 20 24 11 13 1022.3 - 0.0
10/06:40pm 7.1 1.8 2.1 70 2.2 SSE 19 20 10 11 1022.2 - 0.0
10/06:30pm 7.2 1.8 2.2 70 2.2 SE 20 22 11 12 1022.1 - 0.0
10/06:20pm 7.3 1.9 2.2 70 2.2 SE 20 20 11 11 1021.9 - 0.0
10/06:10pm 7.5 2.0 2.0 68 2.4 SE 20 24 11 13 1021.7 - 0.0
10/06:00pm 7.6 1.8 2.2 68 2.3 ESE 22 26 12 14 1021.4 - 0.0
10/05:50pm 7.7 1.9 2.2 68 2.4 ESE 22 22 12 12 1021.3 - 0.0
10/05:40pm 7.5 1.7 2.2 69 2.3 SE 22 24 12 13 1021.3 - 0.0
10/05:30pm 7.7 1.1 2.2 68 2.4 SE 26 28 14 15 1021.0 - 0.0
10/05:20pm 8.0 1.4 2.1 66 2.6 SE 26 28 14 15 1020.8 - 0.0
10/05:10pm 8.4 1.8 2.1 64 2.7 SE 26 28 14 15 1020.7 - 0.0
10/05:00pm 8.6 2.0 2.2 64 2.8 SE 26 28 14 15 1020.6 - 0.0
10/04:50pm 8.8 1.8 1.9 62 3.0 SE 28 30 15 16 1020.6 - 0.0
10/04:40pm 9.0 1.6 2.0 61 3.1 SE 30 33 16 18 1020.5 - 0.0
10/04:30pm 9.2 2.6 2.0 60 3.2 SSE 26 28 14 15 1020.5 - 0.0
10/04:20pm 9.3 2.7 2.0 60 3.2 SSE 26 30 14 16 1020.7 - 0.0
10/04:10pm 9.3 2.7 2.3 61 3.1 SSE 26 28 14 15 1020.6 - 0.0
10/04:00pm 9.3 2.4 2.3 61 3.1 SE 28 33 15 18 1020.4 - 0.0
10/03:50pm 9.3 1.5 1.7 59 3.3 SE 32 33 17 18 1020.2 - 0.0
10/03:40pm 9.3 1.5 1.9 60 3.2 SE 32 35 17 19 1020.1 - 0.0
10/03:30pm 9.3 1.5 1.6 58 3.3 SE 32 37 17 20 1019.6 - 0.0
10/03:20pm 9.3 0.9 1.4 58 3.4 SE 35 39 19 21 1019.9 - 0.0
10/03:10pm 9.2 0.0 1.4 58 3.4 SE 39 41 21 22 1019.8 - 0.0
10/03:00pm 9.3 -0.1 2.1 61 3.2 SE 41 43 22 23 1019.9 - 0.0
10/02:50pm 9.3 -0.4 0.8 55 3.6 SE 41 44 22 24 1019.8 - 0.0
10/02:40pm 9.3 -0.8 1.4 58 3.4 SE 44 46 24 25 1019.6 - 0.0
10/02:30pm 9.4 -0.1 1.7 58 3.4 SE 41 48 22 26 1019.2 - 0.0
10/02:20pm 9.4 0.7 1.8 59 3.3 SE 37 43 20 23 1019.8 - 0.0
10/02:10pm 9.3 -0.7 1.2 57 3.5 SE 43 46 23 25 1019.2 - 0.0
10/02:00pm 9.2 -1.3 1.5 58 3.3 SE 46 50 25 27 1019.3 - 0.0
10/01:50pm 9.2 -1.7 1.6 59 3.3 SE 48 54 26 29 1019.2 - 0.0
10/01:40pm 9.3 -1.1 2.2 61 3.1 SE 46 52 25 28 1019.2 - 0.0
10/01:30pm 9.1 -2.8 1.9 60 3.1 SE 54 59 29 32 1018.9 - 0.0
10/01:20pm 9.0 -1.8 1.7 60 3.2 SSE 48 56 26 30 1019.5 - 0.0
10/01:10pm 8.8 -2.4 1.6 60 3.1 SSE 50 54 27 29 1019.6 - 0.0
10/01:00pm 8.9 -1.9 2.1 62 3.0 SSE 48 52 26 28 1019.6 - 0.0
10/12:50pm 8.9 -2.7 1.4 59 3.2 SE 52 59 28 32 1019.6 - 0.0
10/12:40pm 8.8 -3.1 2.3 64 2.9 SSE 54 57 29 31 1019.6 - 0.0
10/12:30pm 8.7 -3.8 2.1 63 2.9 SSE 57 63 31 34 1019.1 - 0.0
10/12:20pm 8.7 -3.6 1.9 62 3.0 SSE 56 61 30 33 1019.3 - 0.0
10/12:10pm 8.6 -3.8 1.7 62 3.0 SE 56 59 30 32 1019.5 - 0.0
10/12:00pm 8.4 -4.6 1.2 60 3.1 SE 59 67 32 36 1019.1 - 0.0
10/11:50am 8.4 -5.9 0.4 57 3.3 SE 65 72 35 39 1019.3 - 0.0
10/11:40am 8.3 -6.2 1.3 61 3.0 SE 67 72 36 39 1018.6 - 0.0
10/11:30am 8.3 -6.2 1.4 62 3.0 SE 67 72 36 39 1018.3 - 0.0
10/11:20am 8.0 -7.6 0.2 58 3.2 SE 72 76 39 41 1018.7 - 0.0
10/11:10am 8.0 -6.9 1.1 62 2.9 SE 69 72 37 39 1019.0 - 0.0
10/11:00am 8.2 -4.4 1.5 62 2.9 SE 57 63 31 34 1018.9 - 0.0
10/10:50am 8.1 -5.0 0.9 60 3.0 SE 59 67 32 36 1019.0 - 0.0
10/10:40am 7.9 -7.2 0.0 57 3.3 SE 69 80 37 43 1019.1 - 0.0
10/10:30am 7.8 -7.9 0.0 58 3.2 SE 72 76 39 41 1018.5 - 0.0
10/10:20am 7.9 -6.0 0.5 59 3.1 SE 63 72 34 39 1018.3 - 0.0
10/10:10am 7.8 -7.4 0.7 61 3.0 SE 70 82 38 44 1018.7 - 0.0
10/10:00am 7.8 -6.4 0.6 60 3.0 SE 65 70 35 38 1018.6 - 0.0
10/09:50am 7.7 -5.4 0.7 61 2.9 SE 59 67 32 36 1019.0 - 0.0
10/09:40am 7.6 -7.1 0.1 59 3.1 SE 67 72 36 39 1018.2 - 0.0
10/09:30am 7.6 -5.8 1.0 63 2.8 SE 61 65 33 35 1018.1 - 0.0
10/09:20am 7.4 -6.4 0.8 63 2.8 SE 63 70 34 38 1018.4 - 0.0
10/09:10am 7.2 -7.8 0.4 62 2.8 SE 69 80 37 43 1017.1 - 0.0
10/09:00am 7.2 -8.8 0.0 60 2.9 SE 74 80 40 43 1016.5 - 1.6
10/08:50am 7.1 -8.5 0.3 62 2.8 SE 72 83 39 45 1016.8 - 1.6
10/08:40am 7.1 -8.5 0.5 63 2.7 SE 72 82 39 44 1017.4 - 1.6
10/08:30am 7.1 -8.2 0.1 61 2.9 SE 70 80 38 43 1016.5 - 1.6
10/08:20am 7.1 -9.3 0.2 61 2.8 SSE 76 82 41 44 1016.7 - 1.6
10/08:10am 7.0 -8.2 0.5 63 2.7 SE 70 80 38 43 1015.6 - 1.6
10/08:00am 6.9 -5.7 1.1 66 2.4 SE 57 63 31 34 1016.4 - 1.6
10/07:50am 6.9 -7.7 0.9 65 2.5 SE 67 74 36 40 1017.7 - 1.6
10/07:40am 6.6 -6.7 1.5 70 2.2 SE 61 63 33 34 1016.6 - 1.6
10/07:30am 6.6 -7.5 1.8 71 2.0 SE 65 67 35 36 1016.7 - 1.6
10/07:20am 6.6 -7.4 1.9 72 2.0 SE 65 74 35 40 1016.1 - 1.6
10/07:10am 6.3 -7.3 2.1 74 1.8 SE 63 67 34 36 1015.9 - 1.6
10/07:00am 6.2 -7.4 2.1 75 1.7 SE 63 67 34 36 1015.1 - 1.6
10/06:50am 6.2 -7.4 2.4 76 1.6 SE 63 65 34 35 1015.6 - 1.6
10/06:40am 6.2 -7.4 2.4 76 1.6 SE 63 67 34 36 1015.1 - 1.6
10/06:30am 6.3 -7.6 2.5 77 1.6 SE 65 69 35 37 1015.2 - 1.6
10/06:20am 6.4 -8.5 2.7 77 1.6 SE 70 76 38 41 1014.6 - 1.6
10/06:10am 6.4 -9.2 2.7 77 1.6 SSE 74 80 40 43 1014.4 - 1.6
10/06:00am 6.4 -9.6 2.6 77 1.6 SSE 76 80 41 43 1013.4 - 1.6
10/05:50am 6.3 -9.7 2.8 78 1.5 SE 76 80 41 43 1013.5 - 1.6
10/05:40am 6.3 -9.7 2.7 78 1.6 SE 76 80 41 43 1013.2 - 1.6
10/05:30am 5.8 -9.4 2.7 80 1.3 SE 72 78 39 42 1013.4 - 1.6
10/05:20am 5.9 -10.4 2.9 81 1.3 SE 78 83 42 45 1012.5 - 1.6
10/05:10am 5.9 -10.8 2.9 81 1.3 SE 80 83 43 45 1011.8 - 1.4
10/05:00am 5.9 -10.8 2.8 80 1.3 SE 80 85 43 46 1012.1 - 1.4
10/04:50am 6.1 -12.4 2.7 79 1.5 SE 89 93 48 50 1010.4 - 1.4
10/04:40am 6.3 -13.0 2.5 77 1.6 SE 93 95 50 51 1010.1 - 1.4
10/04:30am 6.3 -12.2 2.4 76 1.7 SE 89 91 48 49 1010.0 - 1.4
10/04:20am 6.8 -11.4 2.2 72 2.0 SE 87 91 47 49 1010.8 - 1.4
10/04:10am 6.9 -10.9 1.9 70 2.1 SSE 85 89 46 48 1011.8 - 1.4
10/04:00am 6.9 -11.3 1.8 70 2.2 SSE 87 95 47 51 1011.0 - 1.4
10/03:50am 6.9 -11.3 1.7 69 2.2 SSE 87 95 47 51 1012.2 - 1.4
10/03:40am 7.1 -12.9 1.4 67 2.4 SE 96 100 52 54 1009.8 - 1.4
10/03:30am 7.2 -11.9 1.4 66 2.5 SE 91 96 49 52 1009.9 - 1.4
10/03:20am 7.0 -10.9 1.8 69 2.2 SE 85 95 46 51 1010.1 - 1.4
10/03:10am 7.0 -10.3 2.0 70 2.1 SE 82 87 44 47 1010.9 - 1.4
10/03:00am 7.1 -9.0 2.2 71 2.1 SE 76 82 41 44 1011.9 - 1.4
10/02:50am 7.3 -9.2 2.1 69 2.2 SE 78 85 42 46 1010.5 - 1.4
10/02:40am 7.3 -8.8 2.2 70 2.2 SE 76 85 41 46 1012.4 - 1.4
10/02:30am 7.2 -8.4 2.8 73 1.9 SE 74 80 40 43 1012.3 - 1.4
10/02:20am 7.2 -7.6 2.9 74 1.9 SE 70 76 38 41 1013.0 - 1.4
10/02:10am 7.2 -7.4 2.9 74 1.9 SE 69 74 37 40 1013.3 - 1.4
10/02:00am 7.3 -7.5 2.8 73 2.0 SE 70 78 38 42 1012.6 - 1.4
10/01:50am 7.1 -8.4 3.2 76 1.7 SE 74 80 40 43 1012.4 - 1.4
10/01:40am 7.2 -7.9 3.4 77 1.7 SSE 72 80 39 43 1011.5 - 1.4
10/01:30am 7.2 -7.9 3.3 76 1.7 SE 72 78 39 42 1012.3 - 1.4
10/01:20am 7.1 -5.9 3.4 77 1.6 SE 61 69 33 37 1012.8 - 1.4
10/01:10am 7.3 -7.5 3.2 75 1.8 SE 70 76 38 41 1012.8 - 1.4
10/01:00am 7.3 -7.5 3.2 75 1.8 SE 70 74 38 40 1011.9 - 1.4
10/12:50am 7.3 -7.9 3.0 74 1.9 SE 72 80 39 43 1011.8 - 1.4
10/12:40am 7.2 -8.0 2.8 73 1.9 SE 72 80 39 43 1010.8 - 1.4
10/12:30am 7.3 -8.3 3.0 74 1.9 SE 74 78 40 42 1011.8 - 1.4
10/12:20am 7.5 -8.9 2.8 72 2.1 SE 78 83 42 45 1011.1 - 1.4
10/12:10am 7.6 -9.5 2.8 71 2.1 SE 82 87 44 47 1011.4 - 1.4
10/12:00am 7.6 -9.1 2.8 71 2.1 SE 80 83 43 45 1011.4 - 1.4
 
Date/Time
EST
Temp
°C
App
Temp
°C
Dew
Point
°C
Rel
Hum
%
Delta-T
°C
Wind Press
QNH
hPa
Press
MSL
hPa
Rain since
9am
mm
Dir  Spd
km/h
Gust
km/h
Spd
kts
Gust
kts
09/11:50pm 7.8 -9.0 2.5 69 2.3 SSE 80 85 43 46 1011.6 - 1.4
09/11:40pm 7.8 -7.1 2.4 68 2.4 SSE 70 80 38 43 1011.0 - 1.4
09/11:30pm 8.0 -7.3 2.5 68 2.4 SSE 72 82 39 44 1012.5 - 1.4
09/11:20pm 7.9 -7.2 3.2 72 2.1 SSE 72 80 39 43 1012.7 - 1.4
09/11:10pm 7.8 -6.4 3.2 73 2.0 SSE 67 72 36 39 1012.2 - 1.4
09/11:00pm 7.8 -6.0 3.2 73 2.0 SSE 65 70 35 38 1013.0 - 1.4
09/10:50pm 7.8 -5.3 3.2 73 2.0 SSE 61 69 33 37 1013.3 - 1.4
09/10:40pm 7.7 -5.0 3.3 74 2.0 SSE 59 69 32 37 1013.5 - 1.4
09/10:30pm 7.7 -5.4 3.2 73 2.0 SSE 61 67 33 36 1013.7 - 1.4
09/10:20pm 7.6 -4.5 3.2 74 2.0 SSE 56 63 30 34 1013.8 - 1.4
09/10:10pm 7.5 -4.6 3.1 73 1.9 SSE 56 65 30 35 1013.6 - 1.4
09/10:00pm 7.3 -5.0 3.2 75 1.8 SSE 57 65 31 35 1013.7 - 1.4
09/09:50pm 7.5 -6.0 3.0 73 2.0 SSE 63 72 34 39 1012.8 - 1.4
09/09:40pm 7.5 -4.8 3.0 73 2.0 SSE 57 65 31 35 1013.7 - 1.4
09/09:30pm 7.5 -3.9 3.0 73 2.0 SSE 52 57 28 31 1013.8 - 1.4
09/09:20pm 7.6 -4.6 2.8 71 2.1 SSE 56 63 30 34 1013.4 - 1.4
09/09:10pm 7.6 -4.8 2.8 71 2.1 SSE 57 61 31 33 1013.1 - 1.4
09/09:00pm 7.5 -3.8 3.2 74 1.9 SSE 52 57 28 31 1013.8 - 1.4
09/08:50pm 7.6 -3.8 3.1 73 2.0 SSE 52 61 28 33 1013.9 - 1.4
09/08:40pm 7.4 -3.2 2.9 73 2.0 SSE 48 57 26 31 1013.5 - 1.4
09/08:30pm 7.3 -3.2 3.7 78 1.6 SSE 48 54 26 29 1013.7 - 1.4
09/08:20pm 7.2 -3.3 3.9 79 1.5 SSE 48 52 26 28 1013.8 - 1.4
09/08:10pm 7.3 -3.1 4.0 79 1.5 SE 48 54 26 29 1013.5 - 1.4
09/08:00pm 7.3 -2.8 3.9 79 1.5 SSE 46 52 25 28 1013.6 - 1.4
09/07:50pm 7.4 -2.6 4.1 79 1.5 SSE 46 52 25 28 1013.3 - 1.4
09/07:40pm 7.2 -2.4 4.3 82 1.3 SSE 44 46 24 25 1013.7 - 1.4

Other formats

Comma delimited format used in spreadsheet applications
http://www.bom.gov.au/fwo/IDN60801/IDN60801.99763.axf

JavaScript Object Notation format (JSON) in row-major order
http://www.bom.gov.au/fwo/IDN60801/IDN60801.99763.json

Data quality

Most of these data are generated automatically and are frequently updated. Quality checks on data are not normally performed. It is possible for incorrect values to appear. Refer to information at About Latest Weather Observations and please check the disclaimer before using these data.